Time;durP1;ratioP1;P1;durP2;ratioP2;P2;SDS_P1;SDS_P2;PMS_P1;PMS_P2;Temp;Humidity;BMP_temperature;BMP_pressure;BME280_temperature;BME280_humidity;BME280_pressure;Samples;Min_cycle;Max_cycle;Signal;HPM_P1;HPM_P2
2022/04/24 00:00:43;;;;;;;4.75;3.08;;;;;;;;;;4909485;29;20055;-77
2022/04/24 00:03:08;;;;;;;4.18;3.45;;;;;;;;;;4904078;29;20476;-75
2022/04/24 00:05:34;;;;;;;3.00;2.70;;;;;;;;;;4893955;29;20032;-76
2022/04/24 00:08:00;;;;;;;3.42;2.75;;;;;;;;;;4906609;29;20144;-76
2022/04/24 00:10:26;;;;;;;3.92;2.60;;;;;;;;;;4896390;29;20470;-75
2022/04/24 00:12:51;;;;;;;3.15;2.80;;;;;;;;;;4903235;29;20146;-74
2022/04/24 00:15:17;;;;;;;3.53;2.90;;;;;;;;;;4908233;29;20452;-76
2022/04/24 00:17:42;;;;;;;3.13;2.42;;;;;;;;;;4895920;29;20059;-75
2022/04/24 00:20:10;;;;;;;3.05;2.47;;;;;;;;;;4910767;29;20036;-75
2022/04/24 00:22:35;;;;;;;3.45;2.53;;;;;;;;;;4909612;29;20080;-76
2022/04/24 00:25:01;;;;;;;3.33;2.30;;;;;;;;;;4911603;29;20531;-74
2022/04/24 00:27:26;;;;;;;3.90;2.33;;;;;;;;;;4910219;29;20056;-74
2022/04/24 00:29:51;;;;;;;3.10;2.22;;;;;;;;;;4908878;29;20140;-75
2022/04/24 00:32:17;;;;;;;2.85;2.38;;;;;;;;;;4913688;29;20414;-74
2022/04/24 00:34:42;;;;;;;4.93;2.20;;;;;;;;;;4910500;29;20476;-75
2022/04/24 00:37:08;;;;;;;2.85;2.15;;;;;;;;;;4900322;29;21275;-74
2022/04/24 00:39:33;;;;;;;3.28;2.53;;;;;;;;;;4902942;29;20059;-76
2022/04/24 00:41:59;;;;;;;2.55;1.80;;;;;;;;;;4909179;29;20131;-73
2022/04/24 00:44:26;;;;;;;2.58;2.00;;;;;;;;;;4913150;29;20059;-76
2022/04/24 00:46:51;;;;;;;3.25;2.30;;;;;;;;;;4891555;29;20435;-77
2022/04/24 00:49:17;;;;;;;3.03;2.00;;;;;;;;;;4893492;29;20044;-73
2022/04/24 00:51:43;;;;;;;3.45;2.33;;;;;;;;;;4892275;29;20056;-77
2022/04/24 00:54:10;;;;;;;2.05;1.85;;;;;;;;;;4889072;29;20045;-74
2022/04/24 00:56:38;;;;;;;2.17;1.83;;;;;;;;;;4895137;29;20032;-72
2022/04/24 00:59:05;;;;;;;2.25;2.05;;;;;;;;;;4893834;29;20049;-76
2022/04/24 01:01:33;;;;;;;3.30;1.90;;;;;;;;;;4893274;29;20063;-77
2022/04/24 01:04:01;;;;;;;2.00;1.80;;;;;;;;;;4901856;29;20143;-75
2022/04/24 01:06:27;;;;;;;3.92;2.05;;;;;;;;;;4907296;29;20406;-77
2022/04/24 01:08:53;;;;;;;3.38;1.90;;;;;;;;;;4908508;29;20040;-74
2022/04/24 01:11:19;;;;;;;2.65;2.03;;;;;;;;;;4907220;29;20063;-75
2022/04/24 01:13:45;;;;;;;2.15;1.95;;;;;;;;;;4893234;29;20048;-75
2022/04/24 01:16:10;;;;;;;2.40;1.80;;;;;;;;;;4891164;29;20064;-75
2022/04/24 01:18:37;;;;;;;2.75;1.83;;;;;;;;;;4904769;29;20528;-74
2022/04/24 01:21:07;;;;;;;3.33;2.05;;;;;;;;;;4902704;29;20185;-76
2022/04/24 01:23:33;;;;;;;5.68;2.10;;;;;;;;;;4922307;29;20048;-75
2022/04/24 01:25:58;;;;;;;2.80;2.05;;;;;;;;;;4911562;29;20050;-75
2022/04/24 01:28:23;;;;;;;5.65;1.90;;;;;;;;;;4908153;29;20608;-77
2022/04/24 01:30:49;;;;;;;4.53;2.22;;;;;;;;;;4909131;29;20052;-74
2022/04/24 01:33:14;;;;;;;1.90;1.73;;;;;;;;;;4909739;29;20135;-74
2022/04/24 01:35:39;;;;;;;3.05;1.95;;;;;;;;;;4910827;29;20048;-74
2022/04/24 01:38:05;;;;;;;1.92;1.70;;;;;;;;;;4923540;29;20136;-75
2022/04/24 01:40:30;;;;;;;2.33;1.75;;;;;;;;;;4909768;29;20056;-74
2022/04/24 01:42:56;;;;;;;3.15;2.00;;;;;;;;;;4909473;29;20036;-73
2022/04/24 01:45:21;;;;;;;2.80;1.75;;;;;;;;;;4903218;29;20056;-75
2022/04/24 01:47:46;;;;;;;3.10;2.15;;;;;;;;;;4888888;29;20037;-74
2022/04/24 01:50:12;;;;;;;2.15;1.70;;;;;;;;;;4890501;29;20134;-74
2022/04/24 01:52:37;;;;;;;2.20;2.00;;;;;;;;;;4890384;29;20089;-77
2022/04/24 01:55:03;;;;;;;5.75;1.95;;;;;;;;;;4903613;29;20040;-75
2022/04/24 01:57:29;;;;;;;3.10;2.13;;;;;;;;;;4921460;29;20043;-74
2022/04/24 01:59:54;;;;;;;3.15;2.03;;;;;;;;;;4913740;29;20175;-76
2022/04/24 02:02:19;;;;;;;2.63;2.00;;;;;;;;;;4908939;29;20522;-75
2022/04/24 02:04:45;;;;;;;3.95;1.98;;;;;;;;;;4910199;29;20055;-74
2022/04/24 02:07:11;;;;;;;4.10;2.03;;;;;;;;;;4907313;29;20052;-73
2022/04/24 02:09:38;;;;;;;2.40;1.85;;;;;;;;;;4906561;29;20236;-76
2022/04/24 02:12:05;;;;;;;2.08;1.85;;;;;;;;;;4907608;29;20134;-76
2022/04/24 02:14:30;;;;;;;3.78;2.42;;;;;;;;;;4908315;29;20032;-76
2022/04/24 02:16:56;;;;;;;2.22;1.90;;;;;;;;;;4907783;29;20103;-74
2022/04/24 02:19:21;;;;;;;4.30;2.03;;;;;;;;;;4907860;29;20055;-75
2022/04/24 02:21:46;;;;;;;4.75;1.90;;;;;;;;;;4906620;29;20130;-76
2022/04/24 02:24:12;;;;;;;4.90;2.20;;;;;;;;;;4907273;29;20048;-76
2022/04/24 02:26:37;;;;;;;3.67;2.05;;;;;;;;;;4912693;29;20061;-75
2022/04/24 02:29:03;;;;;;;3.63;2.10;;;;;;;;;;4911192;29;20078;-74
2022/04/24 02:31:28;;;;;;;3.72;1.90;;;;;;;;;;4911273;29;20052;-76
2022/04/24 02:33:53;;;;;;;2.88;2.20;;;;;;;;;;4911808;29;20083;-78
2022/04/24 02:36:19;;;;;;;2.70;2.15;;;;;;;;;;4910140;29;20056;-77
2022/04/24 02:38:44;;;;;;;2.42;2.10;;;;;;;;;;4905598;29;20495;-73
2022/04/24 02:41:09;;;;;;;4.00;2.00;;;;;;;;;;4913764;29;20063;-74
2022/04/24 02:43:35;;;;;;;3.05;2.00;;;;;;;;;;4911880;29;20040;-75
2022/04/24 02:46:00;;;;;;;2.45;2.10;;;;;;;;;;4913337;29;20122;-76
2022/04/24 02:48:27;;;;;;;2.85;2.20;;;;;;;;;;4912616;29;20052;-78
2022/04/24 02:50:54;;;;;;;2.95;2.42;;;;;;;;;;4910348;29;20043;-78
2022/04/24 02:53:19;;;;;;;7.25;2.53;;;;;;;;;;4911622;29;20043;-77
2022/04/24 02:55:44;;;;;;;2.30;2.10;;;;;;;;;;4912973;29;20048;-77
2022/04/24 02:58:10;;;;;;;3.42;2.13;;;;;;;;;;4910284;29;20059;-77
2022/04/24 03:00:43;;;;;;;2.95;2.00;;;;;;;;;;4911798;29;20059;-78
2022/04/24 03:03:09;;;;;;;3.53;2.15;;;;;;;;;;4908609;29;20052;-77
2022/04/24 03:05:35;;;;;;;2.65;2.10;;;;;;;;;;4912516;29;20040;-75
2022/04/24 03:08:01;;;;;;;3.10;2.10;;;;;;;;;;4910030;29;21062;-76
2022/04/24 03:10:27;;;;;;;3.15;2.13;;;;;;;;;;4913639;29;20183;-75
2022/04/24 03:12:53;;;;;;;3.25;2.50;;;;;;;;;;4911601;29;20091;-77
2022/04/24 03:15:18;;;;;;;2.50;2.00;;;;;;;;;;4909336;29;20623;-77
2022/04/24 03:17:44;;;;;;;2.83;2.25;;;;;;;;;;4909846;29;20040;-75
2022/04/24 03:20:11;;;;;;;2.75;2.15;;;;;;;;;;4908074;29;20115;-75
2022/04/24 03:22:37;;;;;;;2.70;2.10;;;;;;;;;;4908541;29;20083;-80
2022/04/24 03:25:04;;;;;;;3.72;2.20;;;;;;;;;;4915188;29;20495;-78
2022/04/24 03:27:30;;;;;;;2.53;2.25;;;;;;;;;;4911182;29;20064;-77
2022/04/24 03:29:55;;;;;;;2.30;2.10;;;;;;;;;;4909083;29;20032;-77
2022/04/24 03:32:21;;;;;;;2.33;1.90;;;;;;;;;;4911075;29;20043;-76
2022/04/24 03:34:46;;;;;;;3.65;2.45;;;;;;;;;;4909418;29;20036;-76
2022/04/24 03:37:12;;;;;;;2.30;2.10;;;;;;;;;;4911458;29;20036;-77
2022/04/24 03:39:37;;;;;;;3.00;2.25;;;;;;;;;;4909864;29;20048;-76
2022/04/24 03:42:05;;;;;;;4.43;2.00;;;;;;;;;;4910473;29;20052;-76
2022/04/24 03:44:32;;;;;;;4.30;2.40;;;;;;;;;;4911674;29;20640;-77
2022/04/24 03:46:58;;;;;;;2.42;2.17;;;;;;;;;;4909033;29;20136;-79
2022/04/24 03:49:23;;;;;;;2.55;2.30;;;;;;;;;;4910823;29;20130;-77
2022/04/24 03:51:49;;;;;;;3.65;2.40;;;;;;;;;;4912157;29;20209;-76
2022/04/24 03:54:14;;;;;;;4.53;2.42;;;;;;;;;;4904140;29;20051;-76
2022/04/24 03:56:39;;;;;;;3.65;2.40;;;;;;;;;;4891415;29;20029;-77
2022/04/24 03:59:05;;;;;;;3.03;2.13;;;;;;;;;;4910148;29;20039;-76
2022/04/24 04:01:30;;;;;;;4.97;2.25;;;;;;;;;;4912051;29;20130;-77
2022/04/24 04:03:57;;;;;;;5.18;2.22;;;;;;;;;;4908616;29;20063;-77
2022/04/24 04:06:23;;;;;;;3.03;2.35;;;;;;;;;;4909935;29;20048;-77
2022/04/24 04:08:48;;;;;;;2.60;2.40;;;;;;;;;;4909864;29;20139;-77
2022/04/24 04:11:14;;;;;;;3.20;2.50;;;;;;;;;;4908512;29;20055;-75
2022/04/24 04:13:40;;;;;;;3.70;2.28;;;;;;;;;;4910759;29;20059;-74
2022/04/24 04:16:05;;;;;;;2.53;2.22;;;;;;;;;;4909169;29;20535;-74
2022/04/24 04:18:31;;;;;;;3.33;2.20;;;;;;;;;;4912026;29;20060;-76
2022/04/24 04:20:56;;;;;;;3.45;2.60;;;;;;;;;;4910140;29;20052;-77
2022/04/24 04:23:21;;;;;;;3.63;2.28;;;;;;;;;;4910034;29;20111;-75
2022/04/24 04:25:47;;;;;;;2.72;2.00;;;;;;;;;;4893083;29;20522;-76
2022/04/24 04:28:13;;;;;;;3.42;2.40;;;;;;;;;;4890156;29;20148;-75
2022/04/24 04:30:38;;;;;;;2.88;2.58;;;;;;;;;;4892860;29;20041;-75
2022/04/24 04:33:03;;;;;;;5.20;2.53;;;;;;;;;;4894658;29;20052;-75
2022/04/24 04:35:29;;;;;;;2.85;2.28;;;;;;;;;;4910723;29;20032;-74
2022/04/24 04:37:55;;;;;;;3.70;2.65;;;;;;;;;;4910628;29;20068;-75
2022/04/24 04:40:20;;;;;;;3.22;2.33;;;;;;;;;;4907158;29;20058;-74
2022/04/24 04:42:48;;;;;;;2.60;2.40;;;;;;;;;;4907873;29;20048;-75
2022/04/24 04:45:14;;;;;;;2.55;2.33;;;;;;;;;;4901659;29;20076;-74
2022/04/24 04:47:39;;;;;;;4.53;2.22;;;;;;;;;;4887830;29;20060;-73
2022/04/24 04:50:05;;;;;;;4.22;2.45;;;;;;;;;;4888347;29;20468;-73
2022/04/24 04:52:30;;;;;;;3.22;2.45;;;;;;;;;;4905495;29;20467;-74
2022/04/24 04:54:56;;;;;;;3.88;2.45;;;;;;;;;;4911455;29;20542;-74
2022/04/24 04:57:21;;;;;;;4.55;2.30;;;;;;;;;;4903602;29;20124;-77
2022/04/24 04:59:46;;;;;;;4.13;2.42;;;;;;;;;;4891217;29;20044;-74
2022/04/24 05:02:12;;;;;;;3.85;2.30;;;;;;;;;;4909523;29;20044;-75
2022/04/24 05:04:38;;;;;;;3.25;2.47;;;;;;;;;;4890903;29;20088;-75
2022/04/24 05:07:04;;;;;;;7.22;2.40;;;;;;;;;;4891151;29;20045;-75
2022/04/24 05:09:29;;;;;;;3.00;2.60;;;;;;;;;;4890162;29;20063;-75
2022/04/24 05:11:55;;;;;;;5.07;2.63;;;;;;;;;;4894306;29;20045;-75
2022/04/24 05:14:20;;;;;;;3.15;2.60;;;;;;;;;;4913987;29;20036;-76
2022/04/24 05:16:46;;;;;;;2.90;2.47;;;;;;;;;;4914675;28;20126;-75
2022/04/24 05:19:11;;;;;;;3.92;2.17;;;;;;;;;;4910266;29;20112;-76
2022/04/24 05:21:36;;;;;;;3.78;2.60;;;;;;;;;;4901777;29;20103;-75
2022/04/24 05:24:02;;;;;;;3.65;2.70;;;;;;;;;;4897068;29;20051;-74
2022/04/24 05:26:27;;;;;;;3.40;2.67;;;;;;;;;;4906650;29;20040;-74
2022/04/24 05:28:53;;;;;;;3.35;2.53;;;;;;;;;;4911415;29;20048;-74
2022/04/24 05:31:19;;;;;;;3.38;2.90;;;;;;;;;;4893432;29;20108;-75
2022/04/24 05:33:45;;;;;;;2.90;2.50;;;;;;;;;;4907650;29;20127;-76
2022/04/24 05:36:10;;;;;;;2.80;2.50;;;;;;;;;;4906581;29;20491;-75
2022/04/24 05:38:36;;;;;;;3.60;2.80;;;;;;;;;;4909858;29;20060;-76
2022/04/24 05:41:01;;;;;;;3.63;2.97;;;;;;;;;;4909094;29;20056;-77
2022/04/24 05:43:27;;;;;;;3.60;2.92;;;;;;;;;;4909186;29;20080;-76
2022/04/24 05:45:52;;;;;;;5.55;2.80;;;;;;;;;;4910093;29;20555;-76
2022/04/24 05:48:18;;;;;;;3.97;2.90;;;;;;;;;;4907992;29;20044;-77
2022/04/24 05:50:44;;;;;;;5.18;3.08;;;;;;;;;;4910842;29;20042;-78
2022/04/24 05:53:10;;;;;;;3.63;2.97;;;;;;;;;;4909115;29;20123;-78
2022/04/24 05:55:35;;;;;;;4.72;3.05;;;;;;;;;;4892281;29;20472;-78
2022/04/24 05:58:00;;;;;;;5.65;2.92;;;;;;;;;;4902902;29;20059;-76
2022/04/24 06:00:26;;;;;;;3.40;2.80;;;;;;;;;;4905450;29;20052;-79
2022/04/24 06:02:54;;;;;;;5.65;2.90;;;;;;;;;;4893937;29;20038;-76
2022/04/24 06:05:20;;;;;;;4.45;3.17;;;;;;;;;;4892147;29;20178;-74
2022/04/24 06:07:46;;;;;;;4.22;3.25;;;;;;;;;;4892928;29;20463;-74
2022/04/24 06:10:12;;;;;;;5.78;3.25;;;;;;;;;;4890470;29;20072;-76
2022/04/24 06:13:09;;;;;;;5.22;3.30;;;;;;;;;;4888924;29;20075;-76
2022/04/24 06:15:38;;;;;;;4.45;3.40;;;;;;;;;;4884825;29;20496;-77
2022/04/24 06:18:04;;;;;;;5.38;3.47;;;;;;;;;;4894331;29;20047;-76
2022/04/24 06:20:29;;;;;;;5.20;3.10;;;;;;;;;;4891819;29;20032;-78
2022/04/24 06:22:57;;;;;;;6.72;3.40;;;;;;;;;;4892520;29;20480;-62
2022/04/24 06:25:33;;;;;;;3.80;3.40;;;;;;;;;;4893783;29;20057;-62
2022/04/24 06:28:01;;;;;;;4.38;3.40;;;;;;;;;;4892213;29;20040;-61
2022/04/24 06:30:28;;;;;;;5.65;3.63;;;;;;;;;;4893584;29;20128;-61
2022/04/24 06:32:55;;;;;;;4.10;3.28;;;;;;;;;;4891022;29;20056;-61
2022/04/24 06:35:20;;;;;;;4.10;3.60;;;;;;;;;;4892258;29;20041;-61
2022/04/24 06:37:48;;;;;;;4.32;3.60;;;;;;;;;;4893650;29;20076;-62
2022/04/24 06:40:16;;;;;;;5.00;4.07;;;;;;;;;;4895024;29;20104;-62
2022/04/24 06:42:58;;;;;;;5.13;3.58;;;;;;;;;;4904083;29;20067;-61
2022/04/24 06:45:25;;;;;;;5.53;3.85;;;;;;;;;;4904175;29;20045;-59
2022/04/24 06:47:52;;;;;;;3.97;3.67;;;;;;;;;;4896609;29;20168;-62
2022/04/24 06:50:18;;;;;;;5.50;4.15;;;;;;;;;;4912691;29;20036;-61
2022/04/24 06:52:43;;;;;;;13.68;5.40;;;;;;;;;;4896761;29;20056;-61
2022/04/24 06:55:09;;;;;;;4.65;3.78;;;;;;;;;;4894054;29;20045;-62
2022/04/24 06:57:34;;;;;;;4.72;3.80;;;;;;;;;;4892949;29;20049;-60
2022/04/24 07:00:00;;;;;;;4.82;3.80;;;;;;;;;;4896517;29;20044;-62
2022/04/24 07:02:25;;;;;;;4.05;3.50;;;;;;;;;;4911284;29;20118;-62
2022/04/24 07:04:50;;;;;;;5.78;3.97;;;;;;;;;;4911689;29;20147;-60
2022/04/24 07:07:16;;;;;;;5.85;3.70;;;;;;;;;;4912429;29;20059;-62
2022/04/24 07:09:41;;;;;;;4.30;3.72;;;;;;;;;;4910490;29;20048;-61
2022/04/24 07:12:07;;;;;;;4.93;4.00;;;;;;;;;;4910001;29;20056;-60
2022/04/24 07:14:33;;;;;;;7.70;3.88;;;;;;;;;;4911073;29;20427;-62
2022/04/24 07:16:58;;;;;;;5.18;4.00;;;;;;;;;;4911454;29;20051;-62
2022/04/24 07:19:24;;;;;;;5.35;3.97;;;;;;;;;;4910468;29;20376;-61
2022/04/24 07:21:49;;;;;;;4.60;4.07;;;;;;;;;;4910262;29;20400;-62
2022/04/24 07:24:15;;;;;;;9.40;3.97;;;;;;;;;;4912068;29;20139;-61
2022/04/24 07:26:41;;;;;;;5.68;4.35;;;;;;;;;;4907783;29;20408;-60
2022/04/24 07:29:07;;;;;;;4.05;3.65;;;;;;;;;;4913720;29;20154;-63
2022/04/24 07:31:32;;;;;;;4.90;4.13;;;;;;;;;;4911416;29;20103;-61
2022/04/24 07:33:58;;;;;;;6.25;4.47;;;;;;;;;;4910847;29;20119;-61
2022/04/24 07:36:24;;;;;;;4.45;3.67;;;;;;;;;;4901896;29;20044;-61
2022/04/24 07:38:50;;;;;;;5.82;4.30;;;;;;;;;;4894937;29;20043;-61
2022/04/24 07:41:16;;;;;;;5.95;3.95;;;;;;;;;;4912834;29;20054;-62
2022/04/24 07:43:48;;;;;;;6.28;4.50;;;;;;;;;;4898041;29;20184;-62
2022/04/24 07:46:14;;;;;;;4.30;3.90;;;;;;;;;;4888028;29;20117;-62
2022/04/24 07:48:39;;;;;;;5.88;4.65;;;;;;;;;;4891019;29;20204;-61
2022/04/24 07:51:05;;;;;;;5.22;4.28;;;;;;;;;;4891288;29;20073;-62
2022/04/24 07:53:30;;;;;;;4.82;4.28;;;;;;;;;;4893571;29;20048;-62
2022/04/24 07:55:55;;;;;;;5.35;4.28;;;;;;;;;;4892426;29;20052;-61
2022/04/24 07:58:21;;;;;;;5.32;4.30;;;;;;;;;;4905171;29;20048;-64
2022/04/24 08:00:47;;;;;;;5.30;4.47;;;;;;;;;;4901311;29;20480;-62
2022/04/24 08:03:14;;;;;;;6.57;4.82;;;;;;;;;;4893381;29;20045;-61
2022/04/24 08:05:45;;;;;;;6.30;4.20;;;;;;;;;;4893294;29;20039;-61
2022/04/24 08:08:18;;;;;;;5.47;4.47;;;;;;;;;;4893637;29;20467;-62
2022/04/24 08:10:49;;;;;;;4.85;4.35;;;;;;;;;;4895014;29;20056;-68
2022/04/24 08:13:16;;;;;;;5.13;4.43;;;;;;;;;;4902854;29;20071;-62
2022/04/24 08:15:42;;;;;;;5.82;4.30;;;;;;;;;;4910402;29;20080;-61
2022/04/24 08:18:07;;;;;;;6.28;4.88;;;;;;;;;;4905430;29;20045;-62
2022/04/24 08:20:36;;;;;;;5.63;4.65;;;;;;;;;;4892016;29;20156;-61
2022/04/24 08:23:03;;;;;;;5.60;4.38;;;;;;;;;;4908045;29;20052;-64
2022/04/24 08:25:29;;;;;;;6.28;4.80;;;;;;;;;;4911962;29;20139;-59
2022/04/24 08:27:56;;;;;;;6.10;4.70;;;;;;;;;;4911645;29;20092;-61
2022/04/24 08:30:23;;;;;;;6.10;4.38;;;;;;;;;;4910985;29;20127;-61
2022/04/24 08:32:49;;;;;;;7.43;4.63;;;;;;;;;;4909950;29;20381;-60
2022/04/24 08:35:17;;;;;;;5.75;4.47;;;;;;;;;;4912867;29;20036;-61
2022/04/24 08:37:43;;;;;;;7.03;4.75;;;;;;;;;;4906768;29;20048;-62
2022/04/24 08:40:10;;;;;;;7.55;4.60;;;;;;;;;;4910464;29;20056;-62
2022/04/24 08:42:36;;;;;;;8.18;5.05;;;;;;;;;;4913660;29;20066;-61
2022/04/24 08:45:04;;;;;;;6.47;4.80;;;;;;;;;;4912011;29;20615;-62
2022/04/24 08:47:29;;;;;;;5.13;4.47;;;;;;;;;;4910279;29;20032;-61
2022/04/24 08:49:57;;;;;;;5.72;4.88;;;;;;;;;;4910929;29;20447;-62
2022/04/24 08:52:23;;;;;;;6.78;4.90;;;;;;;;;;4910760;29;20056;-62
2022/04/24 08:54:50;;;;;;;5.63;4.70;;;;;;;;;;4909147;29;20067;-62
2022/04/24 08:57:16;;;;;;;6.22;4.93;;;;;;;;;;4909921;29;20063;-60
2022/04/24 08:59:41;;;;;;;6.35;4.97;;;;;;;;;;4906864;29;20032;-61
2022/04/24 09:02:10;;;;;;;6.05;4.65;;;;;;;;;;4891805;29;20104;-60
2022/04/24 09:04:38;;;;;;;5.50;4.70;;;;;;;;;;4894602;29;20084;-61
2022/04/24 09:07:08;;;;;;;7.40;5.05;;;;;;;;;;4900951;29;20130;-60
2022/04/24 09:09:41;;;;;;;6.35;4.93;;;;;;;;;;4904331;29;20393;-62
2022/04/24 09:12:17;;;;;;;6.15;5.00;;;;;;;;;;4890086;29;20495;-59
2022/04/24 09:14:53;;;;;;;6.10;5.20;;;;;;;;;;4886157;29;20043;-60
2022/04/24 09:17:23;;;;;;;8.05;5.30;;;;;;;;;;4890155;29;20441;-60
2022/04/24 09:19:50;;;;;;;8.13;5.30;;;;;;;;;;4887426;29;20045;-59
2022/04/24 09:22:16;;;;;;;6.22;5.07;;;;;;;;;;4889598;29;20052;-62
2022/04/24 09:24:59;;;;;;;5.45;4.82;;;;;;;;;;4897480;29;20056;-61
2022/04/24 09:27:28;;;;;;;;;;;;;;;;;;4907500;29;20075;-60
2022/04/24 09:30:03;;;;;;;8.27;5.40;;;;;;;;;;4910718;29;19922;-62
2022/04/24 09:32:31;;;;;;;5.50;5.00;;;;;;;;;;4912671;29;20046;-60
2022/04/24 09:34:57;;;;;;;6.03;5.07;;;;;;;;;;4916121;29;20059;-61
2022/04/24 09:37:23;;;;;;;8.50;5.63;;;;;;;;;;4912108;29;20055;-61
2022/04/24 09:39:50;;;;;;;7.50;4.97;;;;;;;;;;4915622;29;20082;-60
2022/04/24 09:42:20;;;;;;;6.15;5.30;;;;;;;;;;4915389;28;20338;-60
2022/04/24 09:44:50;;;;;;;7.72;5.38;;;;;;;;;;4916242;29;20046;-61
2022/04/24 09:47:23;;;;;;;6.13;5.10;;;;;;;;;;4916122;29;20038;-61
2022/04/24 09:49:50;;;;;;;6.22;5.35;;;;;;;;;;4916998;29;20390;-61
2022/04/24 09:52:18;;;;;;;6.07;5.47;;;;;;;;;;4915971;29;20143;-59
2022/04/24 09:54:49;;;;;;;7.43;4.90;;;;;;;;;;4917664;29;20067;-60
2022/04/24 09:57:16;;;;;;;5.72;5.13;;;;;;;;;;4917744;29;20131;-60
2022/04/24 09:59:44;;;;;;;6.20;5.20;;;;;;;;;;4917008;29;20040;-61
2022/04/24 10:02:11;;;;;;;6.40;5.35;;;;;;;;;;4910652;29;20037;-61
2022/04/24 10:04:38;;;;;;;8.70;5.75;;;;;;;;;;4913453;29;20070;-61
2022/04/24 10:07:10;;;;;;;9.38;5.97;;;;;;;;;;4914415;29;20100;-64
2022/04/24 10:09:41;;;;;;;8.38;5.63;;;;;;;;;;4916235;29;20044;-61
2022/04/24 10:12:09;;;;;;;6.80;5.60;;;;;;;;;;4913136;29;20074;-61
2022/04/24 10:14:42;;;;;;;5.97;5.38;;;;;;;;;;4916229;29;20047;-61
2022/04/24 10:17:35;;;;;;;8.57;5.95;;;;;;;;;;4913128;29;20045;-61
2022/04/24 10:20:10;;;;;;;6.65;5.45;;;;;;;;;;4916809;29;20043;-60
2022/04/24 10:22:39;;;;;;;6.78;5.80;;;;;;;;;;4900946;29;20059;-61
2022/04/24 10:25:06;;;;;;;6.80;5.47;;;;;;;;;;4908520;29;20056;-61
2022/04/24 10:27:45;;;;;;;6.97;5.47;;;;;;;;;;4915860;29;20052;-61
2022/04/24 10:30:33;;;;;;;7.35;5.78;;;;;;;;;;4910891;29;20041;-61
2022/04/24 10:33:15;;;;;;;6.03;5.30;;;;;;;;;;4899120;29;20056;-61
2022/04/24 10:35:50;;;;;;;9.38;5.40;;;;;;;;;;4897307;29;20033;-61
2022/04/24 10:38:17;;;;;;;6.65;5.72;;;;;;;;;;4897649;29;20376;-61
2022/04/24 10:40:59;;;;;;;7.28;5.70;;;;;;;;;;4896902;29;20345;-62
2022/04/24 10:43:25;;;;;;;6.05;5.40;;;;;;;;;;4894704;29;20381;-61
2022/04/24 10:45:52;;;;;;;6.32;5.38;;;;;;;;;;4892574;29;20448;-61
2022/04/24 10:48:17;;;;;;;8.57;5.95;;;;;;;;;;4894931;29;20057;-61
2022/04/24 10:50:48;;;;;;;6.75;5.60;;;;;;;;;;4894498;29;20036;-60
2022/04/24 10:53:14;;;;;;;7.00;5.68;;;;;;;;;;4892639;29;20039;-60
2022/04/24 10:55:40;;;;;;;6.75;5.80;;;;;;;;;;4891960;29;20049;-61
2022/04/24 10:58:06;;;;;;;7.90;6.40;;;;;;;;;;4893017;29;20052;-61
2022/04/24 11:00:37;;;;;;;6.13;5.28;;;;;;;;;;4895052;29;20048;-60
2022/04/24 11:03:13;;;;;;;7.43;5.53;;;;;;;;;;4891988;29;20056;-61
2022/04/24 11:05:42;;;;;;;6.03;5.43;;;;;;;;;;4894677;29;20075;-62
2022/04/24 11:08:10;;;;;;;6.95;5.60;;;;;;;;;;4893496;29;20036;-60
2022/04/24 11:10:40;;;;;;;7.68;5.80;;;;;;;;;;4890637;29;20415;-59
2022/04/24 11:13:10;;;;;;;9.93;6.90;;;;;;;;;;4894060;29;20107;-60
2022/04/24 11:15:42;;;;;;;9.65;7.15;;;;;;;;;;4893817;29;20123;-60
2022/04/24 11:18:21;;;;;;;7.75;6.47;;;;;;;;;;4892514;29;20147;-61
2022/04/24 11:21:16;;;;;;;9.13;6.28;;;;;;;;;;4893401;29;20115;-60
2022/04/24 11:23:43;;;;;;;8.10;6.35;;;;;;;;;;4891706;29;20057;-61
2022/04/24 11:26:09;;;;;;;9.40;6.57;;;;;;;;;;4892419;29;20432;-62
2022/04/24 11:28:43;;;;;;;8.23;5.95;;;;;;;;;;4893423;29;20444;-59
2022/04/24 11:31:17;;;;;;;6.95;6.25;;;;;;;;;;4892551;29;20100;-61
2022/04/24 11:34:12;;;;;;;7.38;6.20;;;;;;;;;;4888784;29;20044;-62
2022/04/24 11:36:37;;;;;;;7.63;6.05;;;;;;;;;;4882443;29;20056;-61
2022/04/24 11:39:07;;;;;;;8.07;6.20;;;;;;;;;;4894003;29;20488;-61
2022/04/24 11:41:33;;;;;;;7.30;6.15;;;;;;;;;;4895325;29;20037;-61
2022/04/24 11:44:03;;;;;;;6.20;5.60;;;;;;;;;;4891879;29;20383;-60
2022/04/24 11:52:01;;;;;;;7.68;5.43;;;;;;;;;;4890872;29;20120;-60
2022/04/24 11:54:28;;;;;;;6.32;5.10;;;;;;;;;;4893419;29;20076;-61
2022/04/24 11:56:54;;;;;;;5.57;4.80;;;;;;;;;;4892275;29;20032;-60
2022/04/24 11:59:22;;;;;;;8.45;5.63;;;;;;;;;;4892942;29;20048;-61
2022/04/24 12:01:56;;;;;;;6.65;5.40;;;;;;;;;;4891614;29;20131;-59
2022/04/24 12:04:21;;;;;;;6.13;5.20;;;;;;;;;;4894084;29;20053;-61
2022/04/24 12:06:48;;;;;;;6.10;4.72;;;;;;;;;;4892263;29;20059;-61
2022/04/24 12:09:14;;;;;;;6.75;4.95;;;;;;;;;;4892651;29;20506;-61
2022/04/24 12:11:40;;;;;;;6.93;5.20;;;;;;;;;;4890895;29;20040;-62
2022/04/24 12:14:06;;;;;;;6.15;4.50;;;;;;;;;;4894604;29;20045;-61
2022/04/24 12:16:32;;;;;;;5.35;4.82;;;;;;;;;;4893403;29;20052;-61
2022/04/24 12:18:59;;;;;;;6.68;4.90;;;;;;;;;;4890172;29;20108;-61
2022/04/24 12:21:25;;;;;;;6.70;4.45;;;;;;;;;;4887286;29;20059;-59
2022/04/24 12:23:52;;;;;;;7.57;5.00;;;;;;;;;;4908026;29;20025;-61
2022/04/24 12:26:18;;;;;;;5.13;4.63;;;;;;;;;;4893396;29;20060;-60
2022/04/24 12:28:43;;;;;;;5.35;4.45;;;;;;;;;;4890017;29;20507;-60
2022/04/24 12:31:23;;;;;;;7.10;4.60;;;;;;;;;;4892544;29;20083;-61
2022/04/24 12:33:52;;;;;;;6.03;5.00;;;;;;;;;;4888762;29;20380;-60
2022/04/24 12:36:17;;;;;;;6.65;5.53;;;;;;;;;;4890242;29;20476;-59
2022/04/24 12:39:00;;;;;;;6.38;4.90;;;;;;;;;;4888786;29;20089;-60
2022/04/24 12:41:27;;;;;;;5.80;5.05;;;;;;;;;;4894288;29;20036;-60
2022/04/24 12:43:54;;;;;;;6.15;4.85;;;;;;;;;;4890790;29;20063;-61
2022/04/24 12:46:19;;;;;;;11.60;5.60;;;;;;;;;;4889980;29;20056;-61
2022/04/24 12:48:49;;;;;;;8.35;5.20;;;;;;;;;;4891207;29;20060;-62
2022/04/24 12:51:15;;;;;;;7.18;5.90;;;;;;;;;;4890448;29;20492;-61
2022/04/24 12:53:41;;;;;;;7.90;5.88;;;;;;;;;;4893368;29;20048;-61
2022/04/24 12:56:07;;;;;;;10.38;5.82;;;;;;;;;;4891582;29;20040;-60
2022/04/24 12:58:32;;;;;;;10.00;6.35;;;;;;;;;;4888156;29;20105;-61
2022/04/24 13:00:59;;;;;;;6.50;5.68;;;;;;;;;;4892656;29;20410;-61
2022/04/24 13:03:24;;;;;;;8.00;5.45;;;;;;;;;;4894158;29;20116;-61
2022/04/24 13:05:51;;;;;;;7.65;5.78;;;;;;;;;;4890072;29;20056;-60
2022/04/24 13:08:17;;;;;;;8.05;6.07;;;;;;;;;;4894887;29;20068;-60
2022/04/24 13:10:42;;;;;;;7.55;5.53;;;;;;;;;;4890596;29;20147;-61
2022/04/24 13:13:08;;;;;;;6.15;5.43;;;;;;;;;;4889984;29;20135;-61
2022/04/24 13:15:35;;;;;;;8.07;5.82;;;;;;;;;;4891018;29;20056;-61
2022/04/24 13:18:07;;;;;;;8.60;6.28;;;;;;;;;;4897875;29;20052;-61
2022/04/24 13:20:41;;;;;;;10.57;5.88;;;;;;;;;;4889841;29;20043;-61
2022/04/24 13:23:11;;;;;;;7.32;5.75;;;;;;;;;;4912011;29;20550;-59
2022/04/24 13:25:38;;;;;;;8.63;5.78;;;;;;;;;;4907555;28;20053;-61
2022/04/24 13:28:05;;;;;;;7.32;5.70;;;;;;;;;;4912163;29;20123;-60
2022/04/24 13:30:31;;;;;;;8.30;6.05;;;;;;;;;;4912501;29;20052;-61
2022/04/24 13:32:57;;;;;;;6.25;5.25;;;;;;;;;;4915962;29;20191;-61
2022/04/24 13:35:23;;;;;;;7.50;5.68;;;;;;;;;;4912174;29;20154;-60
2022/04/24 13:40:33;;;;;;;6.18;4.97;;;;;;;;;;4908999;29;20074;-59
2022/04/24 13:42:59;;;;;;;6.43;5.32;;;;;;;;;;4909734;29;20072;-60
2022/04/24 13:45:25;;;;;;;6.55;5.50;;;;;;;;;;4906135;29;20044;-60
2022/04/24 13:47:54;;;;;;;7.15;5.25;;;;;;;;;;4911372;29;20040;-62
2022/04/24 13:50:21;;;;;;;8.32;5.22;;;;;;;;;;4910426;29;20032;-60
2022/04/24 13:52:46;;;;;;;6.13;5.30;;;;;;;;;;4902664;29;20452;-61
2022/04/24 13:55:15;;;;;;;8.48;5.88;;;;;;;;;;4908761;29;20066;-60
2022/04/24 13:57:42;;;;;;;8.02;5.65;;;;;;;;;;4911465;29;20077;-59
2022/04/24 14:00:10;;;;;;;6.15;5.10;;;;;;;;;;4907922;29;20114;-59
2022/04/24 14:02:38;;;;;;;6.75;5.28;;;;;;;;;;4910283;29;20047;-60
2022/04/24 14:05:04;;;;;;;7.53;5.50;;;;;;;;;;4910785;29;20078;-58
2022/04/24 14:07:30;;;;;;;7.13;4.95;;;;;;;;;;4911077;29;20048;-59
2022/04/24 14:09:56;;;;;;;7.35;5.28;;;;;;;;;;4911004;29;20063;-60
2022/04/24 14:12:21;;;;;;;5.88;4.78;;;;;;;;;;4909035;29;20103;-60
2022/04/24 14:14:47;;;;;;;6.63;5.38;;;;;;;;;;4912149;29;20076;-60
2022/04/24 14:17:13;;;;;;;5.30;4.75;;;;;;;;;;4907584;29;20042;-61
2022/04/24 14:19:38;;;;;;;6.65;5.00;;;;;;;;;;4915247;29;20047;-61
2022/04/24 14:22:04;;;;;;;8.38;4.78;;;;;;;;;;4913861;29;20047;-60
2022/04/24 14:24:29;;;;;;;7.30;4.80;;;;;;;;;;4911602;29;20060;-62
2022/04/24 14:26:55;;;;;;;8.02;4.82;;;;;;;;;;4912100;29;20435;-61
2022/04/24 14:29:21;;;;;;;7.10;5.20;;;;;;;;;;4913851;29;20118;-62
2022/04/24 14:31:46;;;;;;;8.73;5.00;;;;;;;;;;4910807;29;20059;-61
2022/04/24 14:34:16;;;;;;;5.28;4.20;;;;;;;;;;4912509;29;20044;-61
2022/04/24 14:36:41;;;;;;;8.93;5.10;;;;;;;;;;4911807;29;20055;-62
2022/04/24 14:39:08;;;;;;;5.85;4.75;;;;;;;;;;4915146;29;20059;-62
2022/04/24 14:41:34;;;;;;;5.80;4.20;;;;;;;;;;4914358;29;20084;-62
2022/04/24 14:44:00;;;;;;;4.82;4.32;;;;;;;;;;4907237;29;20431;-60
2022/04/24 14:57:22;;;;;;;5.68;4.30;;;;;;;;;;4910963;29;20056;-63
2022/04/24 14:59:47;;;;;;;6.35;4.20;;;;;;;;;;4911256;29;20040;-59
2022/04/24 15:02:13;;;;;;;5.50;3.95;;;;;;;;;;4910216;29;20032;-60